FlightSource - Aviation Photo Database

World Wide Airport Lookup


Search by ICAO
Or
Search by City

FlightSource.ca - Aviation Photo Database - Colon Airport Information
Airport Identification
Name: Colon Airport
ICAO: MHCL
IATA:
Airport Location
City: Marcala
Region: LP
Country: Honduras
Continent: North America
Latitude: 14.1619
Longitude: -88.0344
Airport Information
Type: Small Airport
Elevation: 1240 Feet ASL
Flight Status: MHCL
More Info: MHCL
Airport Weather    
Metar: MHCL 170600Z 00000KT 9999 FEW028 23/22 Q1013 A2992 NOSIG
TAF:


Advertisement